createdAt,value
2022-07-31T03:00:48.240Z,99.90
2022-07-31T03:03:15.520Z,99.90
2022-07-31T03:05:42.745Z,99.90
2022-07-31T03:08:09.909Z,99.90
2022-07-31T03:10:37.134Z,99.90
2022-07-31T03:13:07.226Z,99.90
2022-07-31T03:15:36.314Z,99.90
2022-07-31T03:18:11.137Z,99.90
2022-07-31T03:20:40.125Z,99.90
2022-07-31T03:23:07.529Z,99.90
2022-07-31T03:25:35.043Z,99.90
2022-07-31T03:28:02.457Z,99.90
2022-07-31T03:30:29.636Z,99.90
2022-07-31T03:32:57.410Z,99.90
2022-07-31T03:35:25.398Z,99.90
2022-07-31T03:37:52.909Z,99.90
2022-07-31T03:40:20.364Z,99.90
2022-07-31T03:42:49.060Z,99.90
2022-07-31T03:45:16.879Z,99.90
2022-07-31T03:47:44.143Z,99.90
2022-07-31T03:50:11.649Z,99.90
2022-07-31T03:52:39.878Z,99.90
2022-07-31T03:55:08.844Z,99.90
2022-07-31T03:57:38.025Z,99.90
2022-07-31T04:00:07.944Z,99.90
2022-07-31T04:02:45.171Z,99.90
2022-07-31T04:05:12.478Z,99.90
2022-07-31T04:07:39.686Z,99.90
2022-07-31T04:10:07.504Z,99.90
2022-07-31T04:12:34.796Z,99.90
2022-07-31T04:15:01.995Z,99.90
2022-07-31T04:17:30.826Z,99.90
2022-07-31T04:20:01.005Z,99.90
2022-07-31T04:22:29.629Z,99.90
2022-07-31T04:24:58.170Z,99.90
2022-07-31T04:27:25.416Z,99.90
2022-07-31T04:29:53.657Z,99.90
2022-07-31T04:32:21.687Z,99.90
2022-07-31T04:34:48.846Z,99.90
2022-07-31T04:37:16.893Z,99.90
2022-07-31T04:39:44.470Z,99.90
2022-07-31T04:42:12.468Z,99.90
2022-07-31T04:44:39.922Z,99.90
2022-07-31T04:47:07.623Z,99.90
2022-07-31T04:49:34.899Z,99.90
2022-07-31T04:52:02.480Z,99.90
2022-07-31T04:54:29.890Z,99.90
2022-07-31T04:56:57.143Z,99.90
2022-07-31T04:59:24.432Z,99.90
2022-07-31T05:02:11.721Z,99.90
2022-07-31T05:04:39.603Z,99.90
2022-07-31T05:07:06.838Z,99.90
2022-07-31T05:09:36.522Z,99.90
2022-07-31T05:12:04.499Z,99.90
2022-07-31T05:14:32.019Z,99.90
2022-07-31T05:16:59.333Z,99.90
2022-07-31T05:19:30.375Z,99.90
2022-07-31T05:22:02.361Z,99.90
2022-07-31T05:24:33.490Z,99.90
2022-07-31T05:27:04.776Z,99.90
2022-07-31T05:29:33.324Z,99.90
2022-07-31T05:32:01.509Z,99.90
2022-07-31T05:34:30.057Z,99.90
2022-07-31T05:37:01.794Z,99.90
2022-07-31T05:39:30.237Z,99.90
2022-07-31T05:41:57.625Z,99.90
2022-07-31T05:44:25.140Z,99.90
2022-07-31T05:49:19.887Z,99.90
2022-07-31T05:51:47.441Z,99.90
2022-07-31T05:54:14.838Z,99.90
2022-07-31T05:56:42.096Z,99.90
2022-07-31T05:59:09.797Z,99.90
2022-07-31T06:01:37.750Z,99.90
2022-07-31T06:04:05.571Z,99.90
2022-07-31T06:06:32.936Z,99.90
2022-07-31T06:09:04.401Z,99.90
2022-07-31T06:11:32.446Z,99.90
2022-07-31T06:13:59.900Z,99.90
2022-07-31T06:16:27.099Z,99.90
2022-07-31T06:18:54.373Z,99.90
2022-07-31T06:23:47.664Z,99.90
2022-07-31T06:26:15.227Z,99.90
2022-07-31T06:28:48.782Z,99.90
2022-07-31T06:31:21.026Z,99.90
2022-07-31T06:33:49.596Z,99.90
2022-07-31T06:36:18.099Z,99.90
2022-07-31T06:38:46.020Z,99.90
2022-07-31T06:41:33.611Z,99.90
2022-07-31T06:44:00.822Z,99.90
2022-07-31T06:46:28.495Z,99.90
2022-07-31T06:48:55.831Z,99.90
2022-07-31T06:51:31.752Z,99.90
2022-07-31T06:54:01.094Z,99.90
2022-07-31T06:56:29.444Z,99.90
2022-07-31T06:58:56.906Z,99.90
2022-07-31T07:01:24.278Z,99.90
2022-07-31T07:03:51.598Z,99.90
2022-07-31T07:06:19.212Z,99.90
2022-07-31T07:08:46.429Z,99.90
2022-07-31T07:11:14.136Z,99.90
2022-07-31T07:13:45.040Z,99.90
2022-07-31T07:16:14.716Z,99.90
2022-07-31T07:18:43.187Z,99.90
2022-07-31T07:21:11.050Z,99.90
2022-07-31T07:23:38.585Z,99.90
2022-07-31T07:26:06.206Z,99.90
2022-07-31T07:28:34.021Z,99.90
2022-07-31T07:31:01.909Z,99.90
2022-07-31T07:33:40.752Z,99.90
2022-07-31T07:36:23.483Z,99.90
2022-07-31T07:38:56.023Z,98.90
2022-07-31T07:41:25.298Z,98.10
2022-07-31T07:43:53.384Z,96.30
2022-07-31T07:46:25.012Z,94.60
2022-07-31T07:48:52.711Z,94.30
2022-07-31T07:51:20.699Z,95.10
2022-07-31T07:53:48.307Z,94.40
2022-07-31T07:56:16.001Z,94.50
2022-07-31T07:58:43.162Z,94.80
2022-07-31T08:01:13.472Z,94.70
2022-07-31T08:03:48.578Z,96.00
2022-07-31T08:06:17.753Z,95.20
2022-07-31T08:08:44.946Z,93.90
2022-07-31T08:11:17.099Z,93.80
2022-07-31T08:13:50.256Z,91.40
2022-07-31T08:16:21.668Z,88.50
2022-07-31T08:18:49.899Z,87.80
2022-07-31T08:21:17.173Z,88.20
2022-07-31T08:23:44.500Z,77.90
2022-07-31T08:26:13.815Z,77.90
2022-07-31T08:28:41.811Z,72.60
2022-07-31T08:31:20.954Z,72.40
2022-07-31T08:33:48.188Z,72.60
2022-07-31T08:36:15.411Z,74.70
2022-07-31T08:38:42.632Z,72.80
2022-07-31T08:41:12.009Z,74.00
2022-07-31T08:43:59.963Z,75.60
2022-07-31T08:46:27.388Z,74.00
2022-07-31T08:48:57.438Z,66.50
2022-07-31T08:51:25.416Z,65.60
2022-07-31T08:53:53.400Z,66.60
2022-07-31T08:56:21.469Z,60.10
2022-07-31T08:58:48.678Z,63.60
2022-07-31T09:01:16.098Z,65.10
2022-07-31T09:03:43.990Z,59.70
2022-07-31T09:06:11.246Z,61.50
2022-07-31T09:08:38.496Z,60.60
2022-07-31T09:11:10.888Z,60.10
2022-07-31T09:13:38.471Z,63.40
2022-07-31T09:16:08.097Z,62.20
2022-07-31T09:18:35.291Z,63.20
2022-07-31T09:21:04.907Z,67.00
2022-07-31T09:23:32.449Z,68.20
2022-07-31T09:26:07.591Z,67.00
2022-07-31T09:28:43.136Z,69.20
2022-07-31T09:31:11.333Z,68.70
2022-07-31T09:33:45.210Z,68.60
2022-07-31T09:36:13.551Z,69.20
2022-07-31T09:38:43.509Z,69.30
2022-07-31T09:41:53.432Z,69.50
2022-07-31T09:44:10.614Z,68.40
2022-07-31T09:46:46.239Z,69.50
2022-07-31T09:49:14.123Z,69.30
2022-07-31T09:51:46.944Z,68.30
2022-07-31T09:54:26.960Z,69.20
2022-07-31T09:56:54.415Z,69.90
2022-07-31T09:59:21.700Z,71.40
2022-07-31T10:01:49.696Z,69.50
2022-07-31T10:04:18.817Z,70.70
2022-07-31T10:06:50.959Z,71.60
2022-07-31T10:09:20.622Z,73.90
2022-07-31T10:11:51.478Z,72.80
2022-07-31T10:14:41.147Z,70.40
2022-07-31T10:17:10.251Z,71.30
2022-07-31T10:19:41.281Z,71.50
2022-07-31T10:22:09.913Z,71.50
2022-07-31T10:24:47.711Z,69.30
2022-07-31T10:27:17.387Z,70.40
2022-07-31T10:29:45.477Z,71.60
2022-07-31T10:32:12.962Z,71.00
2022-07-31T10:34:41.399Z,70.80
2022-07-31T10:37:23.065Z,68.40
2022-07-31T10:39:59.656Z,70.70
2022-07-31T10:42:49.669Z,72.10
2022-07-31T10:45:17.749Z,69.60
2022-07-31T10:47:59.764Z,73.00
2022-07-31T10:50:30.319Z,74.70
2022-07-31T10:53:12.036Z,72.50
2022-07-31T10:55:39.579Z,70.60
2022-07-31T10:58:19.752Z,72.90
2022-07-31T11:00:47.041Z,71.10
2022-07-31T11:03:22.353Z,72.30
2022-07-31T11:06:02.022Z,71.30
2022-07-31T11:08:41.861Z,72.50
2022-07-31T11:11:09.701Z,71.80
2022-07-31T11:13:55.435Z,72.30
2022-07-31T11:16:22.965Z,73.30
2022-07-31T11:19:04.379Z,71.90
2022-07-31T11:21:39.039Z,69.80
2022-07-31T11:24:20.952Z,71.60
2022-07-31T11:26:57.443Z,72.70
2022-07-31T11:29:59.046Z,73.00
2022-07-31T11:32:25.730Z,72.80
2022-07-31T11:34:56.052Z,72.20
2022-07-31T11:37:26.091Z,74.50
2022-07-31T11:40:09.631Z,74.60
2022-07-31T11:42:43.747Z,75.70
2022-07-31T11:45:12.405Z,76.80
2022-07-31T11:48:12.564Z,76.90
2022-07-31T11:50:30.860Z,77.40
2022-07-31T11:53:06.856Z,73.30
2022-07-31T11:55:44.695Z,75.10
2022-07-31T11:58:12.172Z,75.80
2022-07-31T12:00:39.481Z,72.70
2022-07-31T12:03:09.123Z,73.90
2022-07-31T12:05:45.184Z,75.10
2022-07-31T12:08:13.453Z,75.30
2022-07-31T12:10:42.006Z,77.90
2022-07-31T12:13:18.175Z,78.10
2022-07-31T12:15:55.605Z,77.80
2022-07-31T12:18:23.459Z,77.20
2022-07-31T12:20:54.249Z,78.10
2022-07-31T12:23:40.217Z,75.80
2022-07-31T12:26:12.351Z,73.80
2022-07-31T12:28:40.343Z,72.70
2022-07-31T12:31:07.604Z,73.30
2022-07-31T12:33:42.726Z,76.20
2022-07-31T12:36:15.032Z,76.40
2022-07-31T12:38:47.809Z,76.90
2022-07-31T12:41:16.213Z,77.40
2022-07-31T12:43:51.682Z,77.20
2022-07-31T12:46:38.538Z,77.90
2022-07-31T12:49:06.593Z,76.80
2022-07-31T12:51:45.792Z,77.20
2022-07-31T12:54:17.781Z,74.30
2022-07-31T12:56:46.467Z,75.00
2022-07-31T12:59:14.252Z,76.20
2022-07-31T13:01:41.913Z,79.00
2022-07-31T13:04:18.365Z,77.00
2022-07-31T13:06:51.653Z,74.70
2022-07-31T13:09:20.031Z,74.20
2022-07-31T13:11:48.418Z,72.30
2022-07-31T13:14:21.328Z,72.50
2022-07-31T13:16:50.678Z,75.00
2022-07-31T13:19:18.256Z,76.10
2022-07-31T13:21:49.303Z,75.60
2022-07-31T13:24:20.886Z,72.80
2022-07-31T13:26:49.542Z,72.30
2022-07-31T13:29:17.425Z,73.50
2022-07-31T13:31:45.057Z,71.90
2022-07-31T13:34:12.378Z,71.60
2022-07-31T13:36:40.126Z,72.40
2022-07-31T13:39:10.862Z,74.20
2022-07-31T13:41:39.043Z,73.00
2022-07-31T13:44:07.164Z,71.30
2022-07-31T13:46:34.562Z,73.20
2022-07-31T13:49:02.937Z,72.80
2022-07-31T13:51:30.312Z,76.80
2022-07-31T13:53:57.538Z,76.50
2022-07-31T13:56:39.070Z,75.60
2022-07-31T13:59:13.697Z,75.70
2022-07-31T14:02:04.134Z,72.70
2022-07-31T14:04:32.733Z,73.60
2022-07-31T14:07:06.764Z,76.10
2022-07-31T14:09:34.880Z,74.30
2022-07-31T14:12:04.316Z,71.90
2022-07-31T14:14:32.483Z,72.10
2022-07-31T14:16:59.826Z,71.60
2022-07-31T14:19:27.079Z,73.90
2022-07-31T14:21:56.878Z,70.30
2022-07-31T14:24:40.265Z,69.80
2022-07-31T14:27:07.906Z,68.90
2022-07-31T14:29:35.923Z,69.60
2022-07-31T14:34:35.563Z,70.40
2022-07-31T14:37:04.676Z,70.60
2022-07-31T14:39:32.201Z,69.50
2022-07-31T14:41:59.398Z,69.70
2022-07-31T14:44:29.004Z,70.80
2022-07-31T14:46:56.593Z,72.00
2022-07-31T14:49:23.911Z,73.20
2022-07-31T14:51:51.207Z,72.60
2022-07-31T14:54:18.414Z,71.60
2022-07-31T14:57:00.695Z,73.80
2022-07-31T14:59:30.077Z,73.40
2022-07-31T15:01:58.421Z,74.00
2022-07-31T15:04:25.879Z,73.10
2022-07-31T15:07:07.791Z,71.40
2022-07-31T15:09:40.440Z,72.80
2022-07-31T15:12:08.177Z,73.50
2022-07-31T15:14:35.538Z,72.80
2022-07-31T15:17:02.972Z,74.60
2022-07-31T15:19:30.487Z,72.30
2022-07-31T15:22:10.969Z,74.50
2022-07-31T15:24:48.250Z,74.10
2022-07-31T15:27:18.148Z,76.50
2022-07-31T15:30:06.140Z,75.90
2022-07-31T15:32:32.699Z,73.10
2022-07-31T15:34:59.964Z,70.40
2022-07-31T15:37:27.252Z,71.20
2022-07-31T15:40:03.367Z,72.10
2022-07-31T15:42:32.696Z,71.80
2022-07-31T15:45:00.006Z,72.40
2022-07-31T15:47:27.262Z,72.60
2022-07-31T15:49:54.558Z,73.70
2022-07-31T15:52:21.775Z,74.40
2022-07-31T15:54:51.973Z,75.50
2022-07-31T15:57:21.090Z,76.00
2022-07-31T15:59:49.275Z,75.70
2022-07-31T16:02:17.088Z,76.10
2022-07-31T16:04:52.352Z,74.50
2022-07-31T16:08:30.447Z,73.20
2022-07-31T16:10:16.761Z,70.60
2022-07-31T16:12:48.369Z,71.00
2022-07-31T16:15:18.366Z,71.20
2022-07-31T16:17:45.981Z,72.30
2022-07-31T16:20:20.815Z,70.90
2022-07-31T16:22:56.158Z,71.30
2022-07-31T16:25:24.418Z,70.10
2022-07-31T16:27:51.859Z,71.60
2022-07-31T16:30:19.134Z,70.80
2022-07-31T16:32:46.437Z,71.00
2022-07-31T16:35:13.802Z,71.40
2022-07-31T16:37:49.919Z,74.10
2022-07-31T16:40:28.751Z,73.00
2022-07-31T16:43:50.053Z,73.90
2022-07-31T16:45:54.309Z,74.00
2022-07-31T16:48:21.724Z,75.70
2022-07-31T16:50:53.216Z,74.10
2022-07-31T16:54:09.862Z,72.30
2022-07-31T16:56:15.021Z,72.40
2022-07-31T16:58:43.767Z,76.00
2022-07-31T17:01:53.941Z,76.10
2022-07-31T17:04:03.526Z,76.20
2022-07-31T17:06:37.254Z,76.10
2022-07-31T17:09:15.225Z,75.70
2022-07-31T17:11:47.164Z,75.50
2022-07-31T17:14:15.275Z,75.60
2022-07-31T17:16:47.120Z,75.20
2022-07-31T17:19:36.278Z,75.80
2022-07-31T17:22:07.436Z,76.00
2022-07-31T17:24:37.258Z,75.60
2022-07-31T17:27:08.574Z,75.30
2022-07-31T17:29:37.723Z,76.20
2022-07-31T17:32:05.369Z,76.40
2022-07-31T17:34:32.610Z,77.80
2022-07-31T17:36:59.811Z,78.30
2022-07-31T17:39:30.895Z,77.50
2022-07-31T17:41:59.323Z,78.10
2022-07-31T17:44:26.620Z,77.90
2022-07-31T17:46:54.752Z,78.80
2022-07-31T17:49:22.094Z,78.00
2022-07-31T17:51:58.935Z,79.40
2022-07-31T17:54:28.649Z,80.20
2022-07-31T17:56:56.103Z,78.80
2022-07-31T17:59:23.501Z,79.20
2022-07-31T18:01:53.141Z,80.60
2022-07-31T18:04:21.346Z,81.10
2022-07-31T18:06:54.444Z,81.40
2022-07-31T18:09:23.562Z,81.30
2022-07-31T18:11:52.379Z,82.10
2022-07-31T18:14:20.533Z,82.50
2022-07-31T18:16:51.712Z,81.90
2022-07-31T18:19:21.343Z,82.10
2022-07-31T18:21:49.201Z,81.70
2022-07-31T18:24:16.479Z,82.50
2022-07-31T18:26:43.713Z,82.70
2022-07-31T18:29:11.134Z,83.00
2022-07-31T18:31:38.663Z,83.40
2022-07-31T18:34:07.050Z,83.70
2022-07-31T18:36:34.898Z,84.10
2022-07-31T18:39:03.940Z,84.10
2022-07-31T18:41:33.978Z,84.10
2022-07-31T18:44:01.964Z,84.80
2022-07-31T18:46:29.273Z,84.50
2022-07-31T18:48:57.023Z,84.80
2022-07-31T18:51:25.176Z,84.90
2022-07-31T18:53:54.345Z,85.20
2022-07-31T18:56:23.680Z,85.40
2022-07-31T18:58:52.294Z,85.70
2022-07-31T19:01:20.869Z,86.20
2022-07-31T19:03:48.590Z,86.40
2022-07-31T19:06:16.164Z,86.60
2022-07-31T19:08:43.872Z,86.90
2022-07-31T19:11:12.202Z,86.80
2022-07-31T19:13:39.484Z,87.00
2022-07-31T19:16:06.895Z,87.00
2022-07-31T19:18:34.445Z,87.40
2022-07-31T19:21:22.618Z,88.00
2022-07-31T19:23:50.028Z,90.40
2022-07-31T19:26:17.689Z,91.00
2022-07-31T19:28:45.089Z,91.90
2022-07-31T19:31:13.278Z,92.00
2022-07-31T19:33:41.238Z,91.60
2022-07-31T19:36:10.751Z,91.40
2022-07-31T19:38:39.683Z,91.30
2022-07-31T19:41:07.010Z,91.20
2022-07-31T19:43:34.318Z,91.40
2022-07-31T19:46:11.346Z,91.70
2022-07-31T19:48:44.852Z,91.80
2022-07-31T19:51:13.742Z,92.00
2022-07-31T19:53:41.906Z,92.00
2022-07-31T19:56:10.978Z,91.90
2022-07-31T19:58:41.199Z,92.30
2022-07-31T20:01:09.437Z,92.70
2022-07-31T20:03:36.970Z,92.70
2022-07-31T20:06:04.728Z,92.80
2022-07-31T20:08:33.522Z,94.00
2022-07-31T20:11:03.900Z,95.40
2022-07-31T20:13:36.012Z,95.30
2022-07-31T20:16:03.640Z,95.70
2022-07-31T20:18:31.012Z,95.10
2022-07-31T20:21:09.855Z,94.00
2022-07-31T20:23:39.084Z,93.80
2022-07-31T20:26:10.127Z,93.60
2022-07-31T20:28:40.146Z,93.40
2022-07-31T20:31:15.739Z,93.30
2022-07-31T20:33:48.886Z,93.50
2022-07-31T20:36:27.026Z,94.20
2022-07-31T20:38:55.418Z,96.60
2022-07-31T20:41:22.646Z,99.30
2022-07-31T20:43:50.259Z,99.20
2022-07-31T20:46:18.200Z,99.40
2022-07-31T20:48:45.380Z,99.90
2022-07-31T20:51:20.169Z,99.90
2022-07-31T20:53:48.366Z,99.90
2022-07-31T20:56:16.240Z,99.90
2022-07-31T20:58:46.209Z,99.90
